sensor_id;sensor_type;location;lat;lon;timestamp;temperature;humidity
40059;SHT31;25763;49.972;8.568;2023-04-01T00:00:44;10.86;75.41
40059;SHT31;25763;49.972;8.568;2023-04-01T00:03:09;10.85;75.20
40059;SHT31;25763;49.972;8.568;2023-04-01T00:05:35;10.86;75.27
40059;SHT31;25763;49.972;8.568;2023-04-01T00:08:00;10.86;75.25
40059;SHT31;25763;49.972;8.568;2023-04-01T00:10:26;10.82;75.41
40059;SHT31;25763;49.972;8.568;2023-04-01T00:12:51;10.85;75.50
40059;SHT31;25763;49.972;8.568;2023-04-01T00:15:16;10.80;75.32
40059;SHT31;25763;49.972;8.568;2023-04-01T00:17:42;10.82;75.15
40059;SHT31;25763;49.972;8.568;2023-04-01T00:20:07;10.80;75.35
40059;SHT31;25763;49.972;8.568;2023-04-01T00:22:34;10.80;75.45
40059;SHT31;25763;49.972;8.568;2023-04-01T00:25:00;10.79;75.32
40059;SHT31;25763;49.972;8.568;2023-04-01T00:27:25;10.76;75.44
40059;SHT31;25763;49.972;8.568;2023-04-01T00:29:51;10.76;75.35
40059;SHT31;25763;49.972;8.568;2023-04-01T00:32:16;10.79;75.28
40059;SHT31;25763;49.972;8.568;2023-04-01T00:34:42;10.77;75.35
40059;SHT31;25763;49.972;8.568;2023-04-01T00:37:09;10.77;75.17
40059;SHT31;25763;49.972;8.568;2023-04-01T00:39:35;10.76;75.03
40059;SHT31;25763;49.972;8.568;2023-04-01T00:42:02;10.79;75.05
40059;SHT31;25763;49.972;8.568;2023-04-01T00:44:30;10.75;75.01
40059;SHT31;25763;49.972;8.568;2023-04-01T00:46:56;10.75;75.18
40059;SHT31;25763;49.972;8.568;2023-04-01T00:49:24;10.76;74.87
40059;SHT31;25763;49.972;8.568;2023-04-01T00:51:53;10.75;74.86
40059;SHT31;25763;49.972;8.568;2023-04-01T00:54:21;10.76;74.98
40059;SHT31;25763;49.972;8.568;2023-04-01T00:57:00;10.73;74.85
40059;SHT31;25763;49.972;8.568;2023-04-01T00:59:39;10.77;74.90
40059;SHT31;25763;49.972;8.568;2023-04-01T01:02:08;10.73;74.88
40059;SHT31;25763;49.972;8.568;2023-04-01T01:04:35;10.76;74.81
40059;SHT31;25763;49.972;8.568;2023-04-01T01:10:15;10.76;74.59
40059;SHT31;25763;49.972;8.568;2023-04-01T01:20:48;10.76;74.50
40059;SHT31;25763;49.972;8.568;2023-04-01T01:23:47;10.73;74.54
40059;SHT31;25763;49.972;8.568;2023-04-01T01:32:06;10.72;74.59
40059;SHT31;25763;49.972;8.568;2023-04-01T01:37:03;10.77;74.80
40059;SHT31;25763;49.972;8.568;2023-04-01T01:39:33;10.72;74.79
40059;SHT31;25763;49.972;8.568;2023-04-01T01:42:03;10.68;74.88
40059;SHT31;25763;49.972;8.568;2023-04-01T01:44:30;10.71;74.75
40059;SHT31;25763;49.972;8.568;2023-04-01T01:46:57;10.72;74.63
40059;SHT31;25763;49.972;8.568;2023-04-01T01:49:23;10.71;74.60
40059;SHT31;25763;49.972;8.568;2023-04-01T01:51:49;10.69;74.65
40059;SHT31;25763;49.972;8.568;2023-04-01T01:54:17;10.71;74.61
40059;SHT31;25763;49.972;8.568;2023-04-01T01:56:46;10.72;74.75
40059;SHT31;25763;49.972;8.568;2023-04-01T01:59:14;10.71;74.69
40059;SHT31;25763;49.972;8.568;2023-04-01T02:01:48;10.69;74.83
40059;SHT31;25763;49.972;8.568;2023-04-01T02:04:15;10.68;74.69
40059;SHT31;25763;49.972;8.568;2023-04-01T02:06:47;10.68;74.82
40059;SHT31;25763;49.972;8.568;2023-04-01T02:09:13;10.72;74.72
40059;SHT31;25763;49.972;8.568;2023-04-01T02:11:51;10.69;74.83
40059;SHT31;25763;49.972;8.568;2023-04-01T02:14:22;10.71;74.69
40059;SHT31;25763;49.972;8.568;2023-04-01T02:17:00;10.71;74.65
40059;SHT31;25763;49.972;8.568;2023-04-01T02:19:33;10.64;74.79
40059;SHT31;25763;49.972;8.568;2023-04-01T02:22:02;10.65;74.90
40059;SHT31;25763;49.972;8.568;2023-04-01T02:24:30;10.67;74.64
40059;SHT31;25763;49.972;8.568;2023-04-01T02:26:57;10.65;74.71
40059;SHT31;25763;49.972;8.568;2023-04-01T02:29:23;10.62;74.85
40059;SHT31;25763;49.972;8.568;2023-04-01T02:31:51;10.61;74.91
40059;SHT31;25763;49.972;8.568;2023-04-01T02:34:17;10.59;74.98
40059;SHT31;25763;49.972;8.568;2023-04-01T02:36:42;10.57;75.02
40059;SHT31;25763;49.972;8.568;2023-04-01T02:39:08;10.55;75.21
40059;SHT31;25763;49.972;8.568;2023-04-01T02:41:41;10.52;75.47
40059;SHT31;25763;49.972;8.568;2023-04-01T02:44:08;10.51;75.65
40059;SHT31;25763;49.972;8.568;2023-04-01T02:46:35;10.52;75.67
40059;SHT31;25763;49.972;8.568;2023-04-01T02:49:01;10.49;75.88
40059;SHT31;25763;49.972;8.568;2023-04-01T02:51:26;10.48;76.02
40059;SHT31;25763;49.972;8.568;2023-04-01T02:53:51;10.45;76.35
40059;SHT31;25763;49.972;8.568;2023-04-01T02:56:17;10.41;76.45
40059;SHT31;25763;49.972;8.568;2023-04-01T02:58:43;10.41;76.62
40059;SHT31;25763;49.972;8.568;2023-04-01T03:01:08;10.40;76.65
40059;SHT31;25763;49.972;8.568;2023-04-01T03:03:33;10.34;76.87
40059;SHT31;25763;49.972;8.568;2023-04-01T03:06:08;10.35;77.03
40059;SHT31;25763;49.972;8.568;2023-04-01T03:08:34;10.34;77.07
40059;SHT31;25763;49.972;8.568;2023-04-01T03:10:59;10.31;77.04
40059;SHT31;25763;49.972;8.568;2023-04-01T03:13:25;10.34;76.99
40059;SHT31;25763;49.972;8.568;2023-04-01T03:15:51;10.33;77.09
40059;SHT31;25763;49.972;8.568;2023-04-01T03:18:16;10.31;77.20
40059;SHT31;25763;49.972;8.568;2023-04-01T03:20:42;10.35;77.05
40059;SHT31;25763;49.972;8.568;2023-04-01T03:23:08;10.35;76.84
40059;SHT31;25763;49.972;8.568;2023-04-01T03:25:33;10.34;76.83
40059;SHT31;25763;49.972;8.568;2023-04-01T03:27:58;10.35;76.79
40059;SHT31;25763;49.972;8.568;2023-04-01T03:30:25;10.37;76.81
40059;SHT31;25763;49.972;8.568;2023-04-01T03:32:50;10.35;76.69
40059;SHT31;25763;49.972;8.568;2023-04-01T03:35:16;10.37;76.56
40059;SHT31;25763;49.972;8.568;2023-04-01T03:37:41;10.40;76.66
40059;SHT31;25763;49.972;8.568;2023-04-01T03:40:07;10.40;76.57
40059;SHT31;25763;49.972;8.568;2023-04-01T03:42:33;10.41;76.58
40059;SHT31;25763;49.972;8.568;2023-04-01T03:44:58;10.40;76.69
40059;SHT31;25763;49.972;8.568;2023-04-01T03:47:24;10.40;76.70
40059;SHT31;25763;49.972;8.568;2023-04-01T03:49:49;10.40;76.75
40059;SHT31;25763;49.972;8.568;2023-04-01T03:52:15;10.38;76.54
40059;SHT31;25763;49.972;8.568;2023-04-01T03:54:40;10.41;76.64
40059;SHT31;25763;49.972;8.568;2023-04-01T03:57:05;10.40;76.61
40059;SHT31;25763;49.972;8.568;2023-04-01T03:59:31;10.41;76.50
40059;SHT31;25763;49.972;8.568;2023-04-01T04:01:56;10.45;76.44
40059;SHT31;25763;49.972;8.568;2023-04-01T04:04:22;10.42;76.50
40059;SHT31;25763;49.972;8.568;2023-04-01T04:06:47;10.45;76.30
40059;SHT31;25763;49.972;8.568;2023-04-01T04:09:13;10.48;76.52
40059;SHT31;25763;49.972;8.568;2023-04-01T04:11:38;10.45;76.45
40059;SHT31;25763;49.972;8.568;2023-04-01T04:14:04;10.46;76.41
40059;SHT31;25763;49.972;8.568;2023-04-01T04:16:30;10.46;76.41
40059;SHT31;25763;49.972;8.568;2023-04-01T04:18:55;10.48;76.41
40059;SHT31;25763;49.972;8.568;2023-04-01T04:21:20;10.49;76.30
40059;SHT31;25763;49.972;8.568;2023-04-01T04:23:46;10.48;76.36
40059;SHT31;25763;49.972;8.568;2023-04-01T04:26:13;10.48;76.42
40059;SHT31;25763;49.972;8.568;2023-04-01T04:28:39;10.48;76.31
40059;SHT31;25763;49.972;8.568;2023-04-01T04:31:05;10.49;76.16
40059;SHT31;25763;49.972;8.568;2023-04-01T04:33:32;10.52;76.23
40059;SHT31;25763;49.972;8.568;2023-04-01T04:35:58;10.49;76.28
40059;SHT31;25763;49.972;8.568;2023-04-01T04:38:24;10.51;76.25
40059;SHT31;25763;49.972;8.568;2023-04-01T04:40:50;10.52;76.26
40059;SHT31;25763;49.972;8.568;2023-04-01T04:43:16;10.48;76.25
40059;SHT31;25763;49.972;8.568;2023-04-01T04:45:43;10.52;76.14
40059;SHT31;25763;49.972;8.568;2023-04-01T04:48:10;10.49;76.08
40059;SHT31;25763;49.972;8.568;2023-04-01T04:50:36;10.55;75.89
40059;SHT31;25763;49.972;8.568;2023-04-01T04:53:02;10.52;76.06
40059;SHT31;25763;49.972;8.568;2023-04-01T04:55:27;10.49;75.92
40059;SHT31;25763;49.972;8.568;2023-04-01T04:57:53;10.52;76.06
40059;SHT31;25763;49.972;8.568;2023-04-01T05:00:18;10.52;76.04
40059;SHT31;25763;49.972;8.568;2023-04-01T05:02:43;10.49;76.14
40059;SHT31;25763;49.972;8.568;2023-04-01T05:05:09;10.49;76.29
40059;SHT31;25763;49.972;8.568;2023-04-01T05:07:35;10.51;76.08
40059;SHT31;25763;49.972;8.568;2023-04-01T05:10:01;10.54;76.00
40059;SHT31;25763;49.972;8.568;2023-04-01T05:12:26;10.52;76.08
40059;SHT31;25763;49.972;8.568;2023-04-01T05:14:52;10.54;76.10
40059;SHT31;25763;49.972;8.568;2023-04-01T05:17:17;10.52;76.15
40059;SHT31;25763;49.972;8.568;2023-04-01T05:19:42;10.54;76.07
40059;SHT31;25763;49.972;8.568;2023-04-01T05:22:08;10.57;75.96
40059;SHT31;25763;49.972;8.568;2023-04-01T05:24:33;10.55;75.87
40059;SHT31;25763;49.972;8.568;2023-04-01T05:26:59;10.54;76.00
40059;SHT31;25763;49.972;8.568;2023-04-01T05:29:25;10.54;76.08
40059;SHT31;25763;49.972;8.568;2023-04-01T05:31:52;10.55;76.16
40059;SHT31;25763;49.972;8.568;2023-04-01T05:34:17;10.54;76.13
40059;SHT31;25763;49.972;8.568;2023-04-01T05:36:43;10.52;76.33
40059;SHT31;25763;49.972;8.568;2023-04-01T05:39:09;10.55;76.56
40059;SHT31;25763;49.972;8.568;2023-04-01T05:41:36;10.48;76.73
40059;SHT31;25763;49.972;8.568;2023-04-01T05:44:01;10.46;77.01
40059;SHT31;25763;49.972;8.568;2023-04-01T05:46:27;10.48;76.96
40059;SHT31;25763;49.972;8.568;2023-04-01T05:48:53;10.48;77.12
40059;SHT31;25763;49.972;8.568;2023-04-01T05:51:18;10.45;77.37
40059;SHT31;25763;49.972;8.568;2023-04-01T05:53:44;10.42;77.58
40059;SHT31;25763;49.972;8.568;2023-04-01T05:56:09;10.37;77.63
40059;SHT31;25763;49.972;8.568;2023-04-01T05:58:38;10.37;78.12
40059;SHT31;25763;49.972;8.568;2023-04-01T06:01:09;10.35;78.06
40059;SHT31;25763;49.972;8.568;2023-04-01T06:03:34;10.33;78.14
40059;SHT31;25763;49.972;8.568;2023-04-01T06:06:00;10.31;78.12
40059;SHT31;25763;49.972;8.568;2023-04-01T06:08:27;10.33;77.70
40059;SHT31;25763;49.972;8.568;2023-04-01T06:18:52;10.37;77.33
40059;SHT31;25763;49.972;8.568;2023-04-01T06:32:09;10.51;77.01
40059;SHT31;25763;49.972;8.568;2023-04-01T06:34:47;10.45;76.21
40059;SHT31;25763;49.972;8.568;2023-04-01T06:43:04;10.57;76.40
40059;SHT31;25763;49.972;8.568;2023-04-01T06:45:41;10.54;76.11
40059;SHT31;25763;49.972;8.568;2023-04-01T06:48:34;10.54;76.31
40059;SHT31;25763;49.972;8.568;2023-04-01T06:51:22;10.54;76.30
40059;SHT31;25763;49.972;8.568;2023-04-01T06:54:09;10.52;76.21
40059;SHT31;25763;49.972;8.568;2023-04-01T06:56:37;10.54;76.37
40059;SHT31;25763;49.972;8.568;2023-04-01T06:59:15;10.48;76.66
40059;SHT31;25763;49.972;8.568;2023-04-01T07:01:45;10.54;76.98
40059;SHT31;25763;49.972;8.568;2023-04-01T07:04:17;10.52;77.44
40059;SHT31;25763;49.972;8.568;2023-04-01T07:09:53;10.52;77.05
40059;SHT31;25763;49.972;8.568;2023-04-01T07:15:05;10.62;76.93
40059;SHT31;25763;49.972;8.568;2023-04-01T07:17:39;10.65;76.55
40059;SHT31;25763;49.972;8.568;2023-04-01T07:20:36;10.65;76.60
40059;SHT31;25763;49.972;8.568;2023-04-01T07:23:15;10.72;76.39
40059;SHT31;25763;49.972;8.568;2023-04-01T07:25:44;10.76;76.54
40059;SHT31;25763;49.972;8.568;2023-04-01T07:28:13;10.76;76.61
40059;SHT31;25763;49.972;8.568;2023-04-01T07:36:53;10.83;77.18
40059;SHT31;25763;49.972;8.568;2023-04-01T07:39:50;10.83;77.45
40059;SHT31;25763;49.972;8.568;2023-04-01T07:45:30;10.92;78.13
40059;SHT31;25763;49.972;8.568;2023-04-01T07:48:23;10.83;78.25
40059;SHT31;25763;49.972;8.568;2023-04-01T07:51:10;10.83;78.14
40059;SHT31;25763;49.972;8.568;2023-04-01T07:53:49;10.87;78.34
40059;SHT31;25763;49.972;8.568;2023-04-01T07:56:30;10.93;78.00
40059;SHT31;25763;49.972;8.568;2023-04-01T08:07:10;10.93;77.71
40059;SHT31;25763;49.972;8.568;2023-04-01T08:10:02;10.96;77.82
40059;SHT31;25763;49.972;8.568;2023-04-01T08:20:58;10.99;77.91
40059;SHT31;25763;49.972;8.568;2023-04-01T08:23:31;11.00;78.26
40059;SHT31;25763;49.972;8.568;2023-04-01T08:26:02;10.99;78.26
40059;SHT31;25763;49.972;8.568;2023-04-01T08:28:39;11.01;79.06
40059;SHT31;25763;49.972;8.568;2023-04-01T08:31:18;10.96;79.21
40059;SHT31;25763;49.972;8.568;2023-04-01T08:33:49;10.86;79.91
40059;SHT31;25763;49.972;8.568;2023-04-01T08:36:25;10.87;80.43
40059;SHT31;25763;49.972;8.568;2023-04-01T08:39:07;10.90;80.72
40059;SHT31;25763;49.972;8.568;2023-04-01T08:48:04;10.85;81.82
40059;SHT31;25763;49.972;8.568;2023-04-01T08:54:05;10.87;82.24
40059;SHT31;25763;49.972;8.568;2023-04-01T09:05:17;10.94;82.86
40059;SHT31;25763;49.972;8.568;2023-04-01T09:08:28;11.06;83.07
40059;SHT31;25763;49.972;8.568;2023-04-01T09:11:01;11.12;82.83
40059;SHT31;25763;49.972;8.568;2023-04-01T09:16:25;11.06;82.64
40059;SHT31;25763;49.972;8.568;2023-04-01T09:30:32;11.29;83.13
40059;SHT31;25763;49.972;8.568;2023-04-01T09:36:07;11.10;83.20
40059;SHT31;25763;49.972;8.568;2023-04-01T09:49:10;11.36;83.57
40059;SHT31;25763;49.972;8.568;2023-04-01T09:55:20;11.31;83.63
40059;SHT31;25763;49.972;8.568;2023-04-01T10:01:00;11.42;83.97
40059;SHT31;25763;49.972;8.568;2023-04-01T10:07:01;11.66;84.13
40059;SHT31;25763;49.972;8.568;2023-04-01T10:12:41;11.67;83.89
40059;SHT31;25763;49.972;8.568;2023-04-01T10:32:15;11.91;83.77
40059;SHT31;25763;49.972;8.568;2023-04-01T10:35:14;12.05;83.82
40059;SHT31;25763;49.972;8.568;2023-04-01T10:38:13;12.05;83.64
40059;SHT31;25763;49.972;8.568;2023-04-01T10:49:29;12.02;84.00
40059;SHT31;25763;49.972;8.568;2023-04-01T10:57:47;11.93;84.59
40059;SHT31;25763;49.972;8.568;2023-04-01T11:11:41;12.24;83.18
40059;SHT31;25763;49.972;8.568;2023-04-01T11:17:17;12.46;82.29
40059;SHT31;25763;49.972;8.568;2023-04-01T11:28:34;12.52;80.67
40059;SHT31;25763;49.972;8.568;2023-04-01T11:34:29;12.52;79.57
40059;SHT31;25763;49.972;8.568;2023-04-01T11:36:37;12.63;80.21
40059;SHT31;25763;49.972;8.568;2023-04-01T11:41:49;12.64;80.38
40059;SHT31;25763;49.972;8.568;2023-04-01T11:44:20;12.74;81.00
40059;SHT31;25763;49.972;8.568;2023-04-01T11:52:27;12.57;81.29
40059;SHT31;25763;49.972;8.568;2023-04-01T11:58:10;12.32;82.01
40059;SHT31;25763;49.972;8.568;2023-04-01T12:06:49;12.39;81.45
40059;SHT31;25763;49.972;8.568;2023-04-01T12:09:41;12.49;81.81
40059;SHT31;25763;49.972;8.568;2023-04-01T12:15:13;12.36;82.52
40059;SHT31;25763;49.972;8.568;2023-04-01T12:18:16;12.46;82.00
40059;SHT31;25763;49.972;8.568;2023-04-01T12:24:00;12.40;82.75
40059;SHT31;25763;49.972;8.568;2023-04-01T12:26:55;12.36;82.86
40059;SHT31;25763;49.972;8.568;2023-04-01T12:40:31;12.67;83.29
40059;SHT31;25763;49.972;8.568;2023-04-01T12:45:53;12.33;83.47
40059;SHT31;25763;49.972;8.568;2023-04-01T12:48:31;12.30;83.58
40059;SHT31;25763;49.972;8.568;2023-04-01T12:57:42;12.29;83.88
40059;SHT31;25763;49.972;8.568;2023-04-01T13:03:08;12.14;82.69
40059;SHT31;25763;49.972;8.568;2023-04-01T13:06:19;11.99;83.52
40059;SHT31;25763;49.972;8.568;2023-04-01T13:14:33;11.74;84.89
40059;SHT31;25763;49.972;8.568;2023-04-01T13:19:51;11.66;85.23
40059;SHT31;25763;49.972;8.568;2023-04-01T13:28:01;11.73;85.31
40059;SHT31;25763;49.972;8.568;2023-04-01T13:30:39;11.84;85.27
40059;SHT31;25763;49.972;8.568;2023-04-01T13:41:59;11.87;84.46
40059;SHT31;25763;49.972;8.568;2023-04-01T13:44:59;11.88;85.03
40059;SHT31;25763;49.972;8.568;2023-04-01T13:56:29;11.77;84.83
40059;SHT31;25763;49.972;8.568;2023-04-01T14:01:41;11.95;84.25
40059;SHT31;25763;49.972;8.568;2023-04-01T14:04:21;11.98;84.11
40059;SHT31;25763;49.972;8.568;2023-04-01T14:18:33;12.30;82.04
40059;SHT31;25763;49.972;8.568;2023-04-01T14:21:17;12.28;82.62
40059;SHT31;25763;49.972;8.568;2023-04-01T14:26:40;12.20;80.84
40059;SHT31;25763;49.972;8.568;2023-04-01T14:29:18;12.29;82.21
40059;SHT31;25763;49.972;8.568;2023-04-01T14:31:55;12.35;81.72
40059;SHT31;25763;49.972;8.568;2023-04-01T14:39:56;12.43;80.51
40059;SHT31;25763;49.972;8.568;2023-04-01T14:45:36;12.39;80.18
40059;SHT31;25763;49.972;8.568;2023-04-01T14:50:53;12.39;80.43
40059;SHT31;25763;49.972;8.568;2023-04-01T14:55:52;12.38;81.15
40059;SHT31;25763;49.972;8.568;2023-04-01T14:58:20;12.24;80.05
40059;SHT31;25763;49.972;8.568;2023-04-01T15:03:22;12.11;81.68
40059;SHT31;25763;49.972;8.568;2023-04-01T15:05:56;12.06;82.09
40059;SHT31;25763;49.972;8.568;2023-04-01T15:08:33;12.02;82.19
40059;SHT31;25763;49.972;8.568;2023-04-01T15:11:23;11.97;82.30
40059;SHT31;25763;49.972;8.568;2023-04-01T15:14:07;11.88;82.24
40059;SHT31;25763;49.972;8.568;2023-04-01T15:24:25;11.86;82.74
40059;SHT31;25763;49.972;8.568;2023-04-01T15:46:04;12.17;81.98
40059;SHT31;25763;49.972;8.568;2023-04-01T15:48:50;12.22;80.94
40059;SHT31;25763;49.972;8.568;2023-04-01T16:02:08;12.35;80.32
40059;SHT31;25763;49.972;8.568;2023-04-01T16:24:35;12.12;79.70
40059;SHT31;25763;49.972;8.568;2023-04-01T16:27:14;12.12;80.30
40059;SHT31;25763;49.972;8.568;2023-04-01T16:32:41;12.14;81.11
40059;SHT31;25763;49.972;8.568;2023-04-01T16:37:59;12.18;80.80
40059;SHT31;25763;49.972;8.568;2023-04-01T16:41:05;12.15;80.22
40059;SHT31;25763;49.972;8.568;2023-04-01T16:48:52;12.08;80.44
40059;SHT31;25763;49.972;8.568;2023-04-01T16:51:20;12.01;80.13
40059;SHT31;25763;49.972;8.568;2023-04-01T16:54:00;11.98;80.23
40059;SHT31;25763;49.972;8.568;2023-04-01T16:56:38;11.98;80.42
40059;SHT31;25763;49.972;8.568;2023-04-01T17:01:50;11.91;79.97
40059;SHT31;25763;49.972;8.568;2023-04-01T17:04:19;11.93;80.05
40059;SHT31;25763;49.972;8.568;2023-04-01T17:06:53;11.91;80.03
40059;SHT31;25763;49.972;8.568;2023-04-01T17:09:39;11.91;80.25
40059;SHT31;25763;49.972;8.568;2023-04-01T17:15:17;11.80;79.66
40059;SHT31;25763;49.972;8.568;2023-04-01T17:23:20;11.71;80.03
40059;SHT31;25763;49.972;8.568;2023-04-01T17:26:17;11.70;80.27
40059;SHT31;25763;49.972;8.568;2023-04-01T17:28:53;11.69;80.01
40059;SHT31;25763;49.972;8.568;2023-04-01T17:31:37;11.62;79.99
40059;SHT31;25763;49.972;8.568;2023-04-01T17:34:17;11.59;80.32
40059;SHT31;25763;49.972;8.568;2023-04-01T17:42:20;11.51;79.91
40059;SHT31;25763;49.972;8.568;2023-04-01T17:45:07;11.49;80.11
40059;SHT31;25763;49.972;8.568;2023-04-01T17:47:43;11.45;79.97
40059;SHT31;25763;49.972;8.568;2023-04-01T17:50:35;11.45;80.13
40059;SHT31;25763;49.972;8.568;2023-04-01T17:53:11;11.41;80.31
40059;SHT31;25763;49.972;8.568;2023-04-01T17:55:47;11.36;80.62
40059;SHT31;25763;49.972;8.568;2023-04-01T17:58:37;11.32;80.56
40059;SHT31;25763;49.972;8.568;2023-04-01T18:06:26;11.28;80.63
40059;SHT31;25763;49.972;8.568;2023-04-01T18:09:29;11.29;80.68
40059;SHT31;25763;49.972;8.568;2023-04-01T18:15:07;11.28;80.25
40059;SHT31;25763;49.972;8.568;2023-04-01T18:17:54;11.29;80.34
40059;SHT31;25763;49.972;8.568;2023-04-01T18:20:36;11.28;80.28
40059;SHT31;25763;49.972;8.568;2023-04-01T18:25:52;11.34;80.25
40059;SHT31;25763;49.972;8.568;2023-04-01T18:36:40;11.21;80.03
40059;SHT31;25763;49.972;8.568;2023-04-01T18:44:57;11.10;79.63
40059;SHT31;25763;49.972;8.568;2023-04-01T18:47:41;11.10;79.65
40059;SHT31;25763;49.972;8.568;2023-04-01T18:50:22;11.11;79.84
40059;SHT31;25763;49.972;8.568;2023-04-01T18:52:57;11.11;79.87
40059;SHT31;25763;49.972;8.568;2023-04-01T18:55:40;11.07;79.96
40059;SHT31;25763;49.972;8.568;2023-04-01T18:58:29;11.07;79.90
40059;SHT31;25763;49.972;8.568;2023-04-01T19:03:32;11.06;79.71
40059;SHT31;25763;49.972;8.568;2023-04-01T19:06:01;11.07;79.97
40059;SHT31;25763;49.972;8.568;2023-04-01T19:08:35;11.03;80.29
40059;SHT31;25763;49.972;8.568;2023-04-01T19:11:36;11.01;80.26
40059;SHT31;25763;49.972;8.568;2023-04-01T19:14:24;11.00;80.38
40059;SHT31;25763;49.972;8.568;2023-04-01T19:17:16;10.93;80.43
40059;SHT31;25763;49.972;8.568;2023-04-01T19:19:54;10.90;80.56
40059;SHT31;25763;49.972;8.568;2023-04-01T19:27:50;10.85;80.38
40059;SHT31;25763;49.972;8.568;2023-04-01T19:30:41;10.83;80.47
40059;SHT31;25763;49.972;8.568;2023-04-01T19:41:36;10.76;80.47
40059;SHT31;25763;49.972;8.568;2023-04-01T19:52:31;10.69;80.34
40059;SHT31;25763;49.972;8.568;2023-04-01T19:55:34;10.71;80.36
40059;SHT31;25763;49.972;8.568;2023-04-01T20:00:34;10.71;80.52
40059;SHT31;25763;49.972;8.568;2023-04-01T20:08:32;10.67;80.45
40059;SHT31;25763;49.972;8.568;2023-04-01T20:11:14;10.65;80.36
40059;SHT31;25763;49.972;8.568;2023-04-01T20:16:14;10.61;80.34
40059;SHT31;25763;49.972;8.568;2023-04-01T20:18:57;10.61;80.51
40059;SHT31;25763;49.972;8.568;2023-04-01T20:21:34;10.59;80.54
40059;SHT31;25763;49.972;8.568;2023-04-01T20:26:40;10.55;80.90
40059;SHT31;25763;49.972;8.568;2023-04-01T20:29:35;10.49;80.87
40059;SHT31;25763;49.972;8.568;2023-04-01T20:32:04;10.48;81.00
40059;SHT31;25763;49.972;8.568;2023-04-01T20:40:34;10.41;81.29
40059;SHT31;25763;49.972;8.568;2023-04-01T20:51:13;10.48;81.26
40059;SHT31;25763;49.972;8.568;2023-04-01T20:53:43;10.45;81.30
40059;SHT31;25763;49.972;8.568;2023-04-01T20:56:28;10.48;81.34
40059;SHT31;25763;49.972;8.568;2023-04-01T21:04:46;10.40;81.39
40059;SHT31;25763;49.972;8.568;2023-04-01T21:16:13;10.45;81.49
40059;SHT31;25763;49.972;8.568;2023-04-01T21:32:34;10.44;81.57
40059;SHT31;25763;49.972;8.568;2023-04-01T21:35:26;10.44;81.48
40059;SHT31;25763;49.972;8.568;2023-04-01T21:38:03;10.41;81.64
40059;SHT31;25763;49.972;8.568;2023-04-01T21:40:55;10.40;81.78
40059;SHT31;25763;49.972;8.568;2023-04-01T21:46:18;10.40;81.82
40059;SHT31;25763;49.972;8.568;2023-04-01T21:51:43;10.38;82.10
40059;SHT31;25763;49.972;8.568;2023-04-01T21:57:31;10.34;82.26
40059;SHT31;25763;49.972;8.568;2023-04-01T22:00:13;10.35;82.34
40059;SHT31;25763;49.972;8.568;2023-04-01T22:03:10;10.37;82.27
40059;SHT31;25763;49.972;8.568;2023-04-01T22:05:58;10.33;82.42
40059;SHT31;25763;49.972;8.568;2023-04-01T22:09:00;10.31;82.48
40059;SHT31;25763;49.972;8.568;2023-04-01T22:14:33;10.31;82.61
40059;SHT31;25763;49.972;8.568;2023-04-01T22:17:14;10.30;82.70
40059;SHT31;25763;49.972;8.568;2023-04-01T22:20:03;10.31;82.74
40059;SHT31;25763;49.972;8.568;2023-04-01T22:22:48;10.35;82.64
40059;SHT31;25763;49.972;8.568;2023-04-01T22:25:25;10.40;82.47
40059;SHT31;25763;49.972;8.568;2023-04-01T22:28:05;10.38;82.56
40059;SHT31;25763;49.972;8.568;2023-04-01T22:30:52;10.45;82.36
40059;SHT31;25763;49.972;8.568;2023-04-01T22:37:05;10.45;82.34
40059;SHT31;25763;49.972;8.568;2023-04-01T22:42:32;10.40;82.65
40059;SHT31;25763;49.972;8.568;2023-04-01T22:45:15;10.41;82.64
40059;SHT31;25763;49.972;8.568;2023-04-01T22:50:35;10.33;82.73
40059;SHT31;25763;49.972;8.568;2023-04-01T22:55:50;10.35;82.89
40059;SHT31;25763;49.972;8.568;2023-04-01T22:58:30;10.28;82.86
40059;SHT31;25763;49.972;8.568;2023-04-01T23:01:19;10.30;82.88
40059;SHT31;25763;49.972;8.568;2023-04-01T23:03:48;10.28;82.89
40059;SHT31;25763;49.972;8.568;2023-04-01T23:06:20;10.30;82.95
40059;SHT31;25763;49.972;8.568;2023-04-01T23:11:36;10.26;83.07
40059;SHT31;25763;49.972;8.568;2023-04-01T23:14:30;10.30;83.11
40059;SHT31;25763;49.972;8.568;2023-04-01T23:19:54;10.31;83.12
40059;SHT31;25763;49.972;8.568;2023-04-01T23:27:52;10.35;83.03
40059;SHT31;25763;49.972;8.568;2023-04-01T23:35:51;10.38;82.69
40059;SHT31;25763;49.972;8.568;2023-04-01T23:38:20;10.37;82.71
40059;SHT31;25763;49.972;8.568;2023-04-01T23:40:48;10.35;82.83
40059;SHT31;25763;49.972;8.568;2023-04-01T23:43:23;10.33;82.85
40059;SHT31;25763;49.972;8.568;2023-04-01T23:45:50;10.35;82.89
40059;SHT31;25763;49.972;8.568;2023-04-01T23:48:16;10.30;83.33
40059;SHT31;25763;49.972;8.568;2023-04-01T23:50:43;10.27;84.03
40059;SHT31;25763;49.972;8.568;2023-04-01T23:53:21;10.23;84.27
40059;SHT31;25763;49.972;8.568;2023-04-01T23:55:48;10.23;84.64
40059;SHT31;25763;49.972;8.568;2023-04-01T23:58:38;10.27;84.35
